createdAt,value
2018-03-28T00:00:38.406Z,7.75
2018-03-28T00:01:37.786Z,7.77
2018-03-28T00:02:37.999Z,7.75
2018-03-28T00:03:38.219Z,7.75
2018-03-28T00:04:38.207Z,7.78
2018-03-28T00:05:37.941Z,7.74
2018-03-28T00:06:38.166Z,7.78
2018-03-28T00:07:38.142Z,7.75
2018-03-28T00:08:38.178Z,7.82
2018-03-28T00:09:38.105Z,7.87
2018-03-28T00:10:38.084Z,7.74
2018-03-28T00:11:38.102Z,7.74
2018-03-28T00:12:37.783Z,7.81
2018-03-28T00:13:37.767Z,7.74
2018-03-28T00:14:38.042Z,7.82
2018-03-28T00:15:37.996Z,7.81
2018-03-28T00:16:37.447Z,7.69
2018-03-28T00:17:37.957Z,7.72
2018-03-28T00:18:37.411Z,7.78
2018-03-28T00:19:37.661Z,7.77
2018-03-28T00:20:37.909Z,7.75
2018-03-28T00:21:37.719Z,7.78
2018-03-28T00:22:37.998Z,7.77
2018-03-28T00:23:37.853Z,7.78
2018-03-28T00:24:37.305Z,7.74
2018-03-28T00:25:37.551Z,7.72
2018-03-28T00:26:37.590Z,7.75
2018-03-28T00:27:37.642Z,7.75
2018-03-28T00:28:37.301Z,7.77
2018-03-28T00:29:37.819Z,7.72
2018-03-28T00:30:37.717Z,7.69
2018-03-28T00:31:37.744Z,7.67
2018-03-28T00:32:37.691Z,7.74
2018-03-28T00:33:37.133Z,7.75
2018-03-28T00:34:37.333Z,7.67
2018-03-28T00:35:37.094Z,7.62
2018-03-28T00:36:37.609Z,7.67
2018-03-28T00:37:37.329Z,7.66
2018-03-28T00:38:37.045Z,7.62
2018-03-28T00:39:37.590Z,7.63
2018-03-28T00:40:37.402Z,7.63
2018-03-28T00:41:37.252Z,7.58
2018-03-28T00:42:37.236Z,7.6
2018-03-28T00:43:36.950Z,7.59
2018-03-28T00:44:36.934Z,7.62
2018-03-28T00:45:37.441Z,7.6
2018-03-28T00:46:36.918Z,7.6
2018-03-28T00:47:37.151Z,7.47
2018-03-28T00:48:37.393Z,7.6
2018-03-28T00:49:37.108Z,7.55
2018-03-28T00:50:36.822Z,7.55
2018-03-28T00:51:37.067Z,7.52
2018-03-28T00:52:36.785Z,7.55
2018-03-28T00:53:37.302Z,7.58
2018-03-28T00:54:37.014Z,7.53
2018-03-28T00:55:36.729Z,7.5
2018-03-28T00:56:36.972Z,7.52
2018-03-28T00:57:36.693Z,7.49
2018-03-28T00:58:37.202Z,7.45
2018-03-28T00:59:36.920Z,7.47
2018-03-28T01:00:36.900Z,7.49
2018-03-28T01:01:36.886Z,7.47
2018-03-28T01:02:36.600Z,7.52
2018-03-28T01:03:36.580Z,7.52
2018-03-28T01:04:36.828Z,7.55
2018-03-28T01:05:36.803Z,7.55
2018-03-28T01:06:36.526Z,7.6
2018-03-28T01:07:36.772Z,7.5
2018-03-28T01:08:37.016Z,7.55
2018-03-28T01:09:36.535Z,7.58
2018-03-28T01:10:36.988Z,7.6
2018-03-28T01:11:36.698Z,7.53
2018-03-28T01:12:36.686Z,7.55
2018-03-28T01:13:36.673Z,7.63
2018-03-28T01:14:36.640Z,7.59
2018-03-28T01:15:36.370Z,7.56
2018-03-28T01:16:36.346Z,7.58
2018-03-28T01:17:37.049Z,7.63
2018-03-28T01:18:36.301Z,7.66
2018-03-28T01:19:36.582Z,7.59
2018-03-28T01:20:36.805Z,7.66
2018-03-28T01:21:36.510Z,7.6
2018-03-28T01:22:36.490Z,7.58
2018-03-28T01:23:36.826Z,7.62
2018-03-28T01:24:36.771Z,7.63
2018-03-28T01:25:36.183Z,7.62
2018-03-28T01:26:36.474Z,7.59
2018-03-28T01:27:36.436Z,7.53
2018-03-28T01:28:36.160Z,7.66
2018-03-28T01:29:36.373Z,7.6
2018-03-28T01:30:36.345Z,7.63
2018-03-28T01:31:36.326Z,7.62
2018-03-28T01:32:36.566Z,7.62
2018-03-28T01:33:36.294Z,7.63
2018-03-28T01:34:36.267Z,7.56
2018-03-28T01:35:36.254Z,7.66
2018-03-28T01:36:36.631Z,7.6
2018-03-28T01:37:35.948Z,7.56
2018-03-28T01:38:35.926Z,7.6
2018-03-28T01:39:36.453Z,7.6
2018-03-28T01:40:36.281Z,7.62
2018-03-28T01:41:35.874Z,7.63
2018-03-28T01:42:36.462Z,7.66
2018-03-28T01:43:36.114Z,7.63
2018-03-28T01:44:36.380Z,7.62
2018-03-28T01:45:36.068Z,7.67
2018-03-28T01:46:36.308Z,7.71
2018-03-28T01:47:36.025Z,7.67
2018-03-28T01:48:36.277Z,7.62
2018-03-28T01:49:36.027Z,7.66
2018-03-28T01:50:36.245Z,7.69
2018-03-28T01:51:35.951Z,7.69
2018-03-28T01:52:35.669Z,7.59
2018-03-28T01:53:35.672Z,7.62
2018-03-28T01:54:36.163Z,7.67
2018-03-28T01:55:35.766Z,7.62
2018-03-28T01:56:36.142Z,7.59
2018-03-28T01:57:35.840Z,7.69
2018-03-28T01:58:36.176Z,7.72
2018-03-28T01:59:35.544Z,7.75
2018-03-28T02:00:35.788Z,7.67
2018-03-28T02:01:36.040Z,7.6
2018-03-28T02:02:35.764Z,7.69
2018-03-28T02:03:35.996Z,7.66
2018-03-28T02:04:35.915Z,7.67
2018-03-28T02:05:36.026Z,7.74
2018-03-28T02:06:35.924Z,7.67
2018-03-28T02:07:35.706Z,7.71
2018-03-28T02:08:35.371Z,7.69
2018-03-28T02:09:35.627Z,7.69
2018-03-28T02:10:35.865Z,7.69
2018-03-28T02:11:35.599Z,7.67
2018-03-28T02:12:35.343Z,7.72
2018-03-28T02:13:35.672Z,7.72
2018-03-28T02:14:35.576Z,7.79
2018-03-28T02:15:35.509Z,7.74
2018-03-28T02:16:35.494Z,7.63
2018-03-28T02:17:35.931Z,7.63
2018-03-28T02:18:35.720Z,7.77
2018-03-28T02:19:35.439Z,7.75
2018-03-28T02:20:35.692Z,7.72
2018-03-28T02:21:35.889Z,7.71
2018-03-28T02:22:35.413Z,7.77
2018-03-28T02:23:35.639Z,7.77
2018-03-28T02:24:35.078Z,7.72
2018-03-28T02:25:35.322Z,7.72
2018-03-28T02:26:35.046Z,7.77
2018-03-28T02:27:35.423Z,7.78
2018-03-28T02:28:35.375Z,7.74
2018-03-28T02:29:35.252Z,7.72
2018-03-28T02:30:35.316Z,7.77
2018-03-28T02:31:35.298Z,7.79
2018-03-28T02:32:35.463Z,7.72
2018-03-28T02:33:35.175Z,7.74
2018-03-28T02:34:35.302Z,7.74
2018-03-28T02:35:35.530Z,7.72
2018-03-28T02:36:35.455Z,7.77
2018-03-28T02:37:34.956Z,7.72
2018-03-28T02:38:34.832Z,7.78
2018-03-28T02:39:35.069Z,7.69
2018-03-28T02:40:34.783Z,7.67
2018-03-28T02:41:35.332Z,7.72
2018-03-28T02:42:35.326Z,7.67
2018-03-28T02:43:35.261Z,7.71
2018-03-28T02:44:35.467Z,7.71
2018-03-28T02:45:35.072Z,7.72
2018-03-28T02:46:35.060Z,7.69
2018-03-28T02:47:35.186Z,7.72
2018-03-28T02:48:35.035Z,7.67
2018-03-28T02:49:34.682Z,7.67
2018-03-28T02:50:35.270Z,7.75
2018-03-28T02:51:34.985Z,7.69
2018-03-28T02:52:34.636Z,7.69
2018-03-28T02:53:34.546Z,7.66
2018-03-28T02:54:35.060Z,7.72
2018-03-28T02:55:34.780Z,7.69
2018-03-28T02:56:34.871Z,7.74
2018-03-28T02:57:35.064Z,7.72
2018-03-28T02:58:34.736Z,7.74
2018-03-28T02:59:34.718Z,7.69
2018-03-28T03:00:34.450Z,7.78
2018-03-28T03:01:34.680Z,7.78
2018-03-28T03:02:35.001Z,7.81
2018-03-28T03:03:34.632Z,7.79
2018-03-28T03:04:34.466Z,7.75
2018-03-28T03:05:34.611Z,7.71
2018-03-28T03:06:34.611Z,7.75
2018-03-28T03:07:34.824Z,7.75
2018-03-28T03:08:34.818Z,7.77
2018-03-28T03:09:34.556Z,7.78
2018-03-28T03:10:34.248Z,7.79
2018-03-28T03:11:34.749Z,7.84
2018-03-28T03:12:34.476Z,7.81
2018-03-28T03:13:34.798Z,7.79
2018-03-28T03:14:34.470Z,7.89
2018-03-28T03:15:34.668Z,7.82
2018-03-28T03:16:34.380Z,7.79
2018-03-28T03:17:34.733Z,7.79
2018-03-28T03:18:34.383Z,7.77
2018-03-28T03:19:34.403Z,7.85
2018-03-28T03:20:34.620Z,7.93
2018-03-28T03:21:34.603Z,7.85
2018-03-28T03:22:34.016Z,7.89
2018-03-28T03:23:34.381Z,7.9
2018-03-28T03:24:34.383Z,7.89
2018-03-28T03:25:34.222Z,7.9
2018-03-28T03:26:34.465Z,7.84
2018-03-28T03:27:34.444Z,7.87
2018-03-28T03:28:34.167Z,7.85
2018-03-28T03:29:34.441Z,7.92
2018-03-28T03:30:33.892Z,7.87
2018-03-28T03:31:34.220Z,7.84
2018-03-28T03:32:34.488Z,7.87
2018-03-28T03:33:34.188Z,7.85
2018-03-28T03:34:33.786Z,7.9
2018-03-28T03:35:33.764Z,7.87
2018-03-28T03:36:34.016Z,7.82
2018-03-28T03:37:34.267Z,7.84
2018-03-28T03:38:34.242Z,7.87
2018-03-28T03:39:33.971Z,7.87
2018-03-28T03:40:33.801Z,7.89
2018-03-28T03:41:34.241Z,7.87
2018-03-28T03:42:33.633Z,7.93
2018-03-28T03:43:34.213Z,7.89
2018-03-28T03:44:34.070Z,7.93
2018-03-28T03:45:34.110Z,7.89
2018-03-28T03:46:33.558Z,7.87
2018-03-28T03:47:33.664Z,7.93
2018-03-28T03:48:34.053Z,7.81
2018-03-28T03:49:33.771Z,7.84
2018-03-28T03:50:33.486Z,7.89
2018-03-28T03:51:33.998Z,7.87
2018-03-28T03:52:34.194Z,7.94
2018-03-28T03:53:33.702Z,7.97
2018-03-28T03:54:33.756Z,7.92
2018-03-28T03:55:33.668Z,7.9
2018-03-28T03:56:33.645Z,7.93
2018-03-28T03:57:33.624Z,7.9
2018-03-28T03:58:33.607Z,7.99
2018-03-28T03:59:34.020Z,7.99
2018-03-28T04:00:33.572Z,7.97
2018-03-28T04:01:33.282Z,8.02
2018-03-28T04:02:33.796Z,7.94
2018-03-28T04:03:33.795Z,8.07
2018-03-28T04:04:33.697Z,8.03
2018-03-28T04:05:33.479Z,7.99
2018-03-28T04:06:33.196Z,7.94
2018-03-28T04:07:33.442Z,7.99
2018-03-28T04:08:33.417Z,7.94
2018-03-28T04:09:33.400Z,7.97
2018-03-28T04:10:33.654Z,7.99
2018-03-28T04:11:33.360Z,8.03
2018-03-28T04:12:33.079Z,7.97
2018-03-28T04:13:33.324Z,7.9
2018-03-28T04:14:33.374Z,7.99
2018-03-28T04:15:33.562Z,8.02
2018-03-28T04:16:33.285Z,8
2018-03-28T04:17:33.523Z,7.97
2018-03-28T04:18:33.234Z,8.03
2018-03-28T04:19:33.213Z,8.03
2018-03-28T04:20:33.198Z,7.93
2018-03-28T04:21:33.471Z,8.02
2018-03-28T04:22:33.423Z,7.97
2018-03-28T04:23:33.410Z,8
2018-03-28T04:24:33.391Z,8
2018-03-28T04:25:33.103Z,8.07
2018-03-28T04:26:33.364Z,8
2018-03-28T04:27:33.071Z,7.99
2018-03-28T04:28:33.047Z,7.99
2018-03-28T04:29:33.028Z,8.02
2018-03-28T04:30:33.083Z,8.02
2018-03-28T04:31:32.994Z,8.03
2018-03-28T04:32:32.985Z,7.99
2018-03-28T04:33:33.224Z,8.02
2018-03-28T04:34:32.938Z,8
2018-03-28T04:35:33.191Z,8.07
2018-03-28T04:36:33.179Z,8.03
2018-03-28T04:37:32.906Z,8.03
2018-03-28T04:38:32.868Z,8.03
2018-03-28T04:39:33.121Z,8.03
2018-03-28T04:40:33.199Z,8.07
2018-03-28T04:41:32.880Z,8.03
2018-03-28T04:42:32.576Z,8.07
2018-03-28T04:43:32.511Z,8.04
2018-03-28T04:44:33.021Z,8.08
2018-03-28T04:45:32.736Z,8.1
2018-03-28T04:46:32.981Z,8.08
2018-03-28T04:47:32.761Z,8.1
2018-03-28T04:48:32.687Z,8.07
2018-03-28T04:49:32.946Z,8.08
2018-03-28T04:50:32.657Z,8.03
2018-03-28T04:51:32.897Z,8.14
2018-03-28T04:52:32.613Z,8.04
2018-03-28T04:53:32.592Z,8.11
2018-03-28T04:54:32.581Z,8.08
2018-03-28T04:55:32.561Z,8.11
2018-03-28T04:56:32.809Z,8.14
2018-03-28T04:57:32.788Z,8.08
2018-03-28T04:58:32.549Z,8.11
2018-03-28T04:59:32.481Z,8.07
2018-03-28T05:00:32.727Z,8.11
2018-03-28T05:01:32.448Z,8.15
2018-03-28T05:02:32.440Z,8.15
2018-03-28T05:03:32.145Z,8.11
2018-03-28T05:04:32.395Z,8.12
2018-03-28T05:05:32.683Z,8.14
2018-03-28T05:06:32.367Z,8.15
2018-03-28T05:07:32.069Z,8.15
2018-03-28T05:08:32.321Z,8.21
2018-03-28T05:09:32.307Z,8.11
2018-03-28T05:10:32.015Z,8.18
2018-03-28T05:11:32.275Z,8.14
2018-03-28T05:12:32.511Z,8.1
2018-03-28T05:13:31.967Z,8.14
2018-03-28T05:14:31.942Z,8.11
2018-03-28T05:15:32.191Z,8.21
2018-03-28T05:16:32.440Z,8.12
2018-03-28T05:17:32.418Z,8.14
2018-03-28T05:18:31.877Z,8.08
2018-03-28T05:19:32.120Z,8.1
2018-03-28T05:20:32.382Z,8.12
2018-03-28T05:21:32.350Z,8.11
2018-03-28T05:22:32.368Z,8.11
2018-03-28T05:23:32.054Z,8.04
2018-03-28T05:24:32.304Z,8.15
2018-03-28T05:25:32.094Z,8.12
2018-03-28T05:26:32.044Z,8.11
2018-03-28T05:27:31.707Z,8.14
2018-03-28T05:28:32.579Z,8.17
2018-03-28T05:29:31.940Z,8.15
2018-03-28T05:30:31.719Z,8.11
2018-03-28T05:31:31.945Z,8.14
2018-03-28T05:32:31.700Z,8.15
2018-03-28T05:33:31.603Z,8.14
2018-03-28T05:34:32.170Z,8.11
2018-03-28T05:35:31.842Z,8.11
2018-03-28T05:36:31.553Z,8.08
2018-03-28T05:37:32.068Z,8.17
2018-03-28T05:38:32.039Z,8.15
2018-03-28T05:39:31.492Z,8.1
2018-03-28T05:40:31.736Z,8.15
2018-03-28T05:41:31.721Z,8.12
2018-03-28T05:42:31.703Z,8.1
2018-03-28T05:43:31.686Z,8.15
2018-03-28T05:44:31.933Z,8.15
2018-03-28T05:45:31.647Z,8.25
2018-03-28T05:46:31.358Z,8.17
2018-03-28T05:47:31.607Z,8.17
2018-03-28T05:48:31.321Z,8.17
2018-03-28T05:49:31.838Z,8.28
2018-03-28T05:50:31.574Z,8.17
2018-03-28T05:51:31.585Z,8.17
2018-03-28T05:52:31.518Z,8.17
2018-03-28T05:53:31.766Z,8.2
2018-03-28T05:54:31.770Z,8.17
2018-03-28T05:55:31.462Z,8.28
2018-03-28T05:56:31.178Z,8.15
2018-03-28T05:57:31.688Z,8.2
2018-03-28T05:58:31.682Z,8.26
2018-03-28T05:59:31.392Z,8.2
2018-03-28T06:00:31.108Z,8.26
2018-03-28T06:01:31.666Z,8.18
2018-03-28T06:02:31.592Z,8.22
2018-03-28T06:03:31.315Z,8.25
2018-03-28T06:04:31.502Z,8.17
2018-03-28T06:05:31.008Z,8.22
2018-03-28T06:06:30.990Z,8.25
2018-03-28T06:07:30.973Z,8.2
2018-03-28T06:08:30.965Z,8.2
2018-03-28T06:09:30.933Z,8.32
2018-03-28T06:10:31.195Z,8.3
2018-03-28T06:11:31.165Z,8.26
2018-03-28T06:12:31.413Z,8.3
2018-03-28T06:13:31.144Z,8.25
2018-03-28T06:14:31.105Z,8.21
2018-03-28T06:15:31.092Z,8.25
2018-03-28T06:16:31.175Z,8.29
2018-03-28T06:17:31.056Z,8.32
2018-03-28T06:18:31.146Z,8.28
2018-03-28T06:19:31.121Z,8.3
2018-03-28T06:20:31.000Z,8.26
2018-03-28T06:21:31.084Z,8.2
2018-03-28T06:22:30.698Z,8.33
2018-03-28T06:23:31.215Z,8.26
2018-03-28T06:24:30.657Z,8.3
2018-03-28T06:25:30.642Z,8.26
2018-03-28T06:26:30.892Z,8.25
2018-03-28T06:27:30.601Z,8.35
2018-03-28T06:28:30.950Z,8.37
2018-03-28T06:29:30.839Z,8.3
2018-03-28T06:30:30.813Z,8.4
2018-03-28T06:31:31.170Z,8.32
2018-03-28T06:32:30.813Z,8.33
2018-03-28T06:33:31.035Z,8.44
2018-03-28T06:34:31.099Z,8.29
2018-03-28T06:35:30.990Z,8.32
2018-03-28T06:36:30.713Z,8.36
2018-03-28T06:37:30.708Z,8.29
2018-03-28T06:38:30.414Z,8.33
2018-03-28T06:39:30.977Z,8.33
2018-03-28T06:40:30.703Z,8.35
2018-03-28T06:41:30.702Z,8.39
2018-03-28T06:42:30.664Z,8.33
2018-03-28T06:43:30.844Z,8.3
2018-03-28T06:44:30.554Z,8.39
2018-03-28T06:45:30.273Z,8.33
2018-03-28T06:46:30.805Z,8.33
2018-03-28T06:47:30.511Z,8.42
2018-03-28T06:48:30.847Z,8.42
2018-03-28T06:49:30.466Z,8.42
2018-03-28T06:50:30.446Z,8.48
2018-03-28T06:51:30.173Z,8.39
2018-03-28T06:52:30.673Z,8.44
2018-03-28T06:53:30.659Z,8.29
2018-03-28T06:54:30.643Z,8.39
2018-03-28T06:55:30.353Z,8.37
2018-03-28T06:56:30.602Z,8.37
2018-03-28T06:57:30.636Z,8.3
2018-03-28T06:58:30.635Z,8.32
2018-03-28T06:59:30.557Z,8.35
2018-03-28T07:00:30.540Z,8.42
2018-03-28T07:01:30.254Z,8.36
2018-03-28T07:02:29.970Z,8.4
2018-03-28T07:03:30.477Z,8.33
2018-03-28T07:04:29.936Z,8.33
2018-03-28T07:05:30.484Z,8.35
2018-03-28T07:06:30.151Z,8.33
2018-03-28T07:07:30.235Z,8.35
2018-03-28T07:08:30.121Z,8.32
2018-03-28T07:09:30.098Z,8.37
2018-03-28T07:10:30.343Z,8.35
2018-03-28T07:11:30.197Z,8.36
2018-03-28T07:12:30.308Z,8.42
2018-03-28T07:13:30.020Z,8.42
2018-03-28T07:14:30.271Z,8.44
2018-03-28T07:15:29.984Z,8.47
2018-03-28T07:16:30.232Z,8.53
2018-03-28T07:17:30.181Z,8.51
2018-03-28T07:18:30.206Z,8.63
2018-03-28T07:19:30.175Z,8.58
2018-03-28T07:20:30.210Z,8.63
2018-03-28T07:21:30.150Z,8.69
2018-03-28T07:22:29.898Z,8.6
2018-03-28T07:23:29.840Z,8.57
2018-03-28T07:24:29.557Z,8.62
2018-03-28T07:25:29.877Z,8.69
2018-03-28T07:26:29.826Z,8.75
2018-03-28T07:27:30.045Z,8.72
2018-03-28T07:28:30.019Z,8.75
2018-03-28T07:29:29.751Z,8.73
2018-03-28T07:30:29.728Z,8.75
2018-03-28T07:31:29.965Z,8.81
2018-03-28T07:32:29.680Z,8.88
2018-03-28T07:33:29.394Z,8.84
2018-03-28T07:34:29.690Z,8.87
2018-03-28T07:35:29.717Z,8.94
2018-03-28T07:36:29.615Z,8.88
2018-03-28T07:37:29.589Z,8.96
2018-03-28T07:38:29.576Z,8.91
2018-03-28T07:39:29.599Z,9.06
2018-03-28T07:40:29.912Z,8.99
2018-03-28T07:41:29.532Z,9.02
2018-03-28T07:42:29.706Z,8.96
2018-03-28T07:43:29.496Z,8.93
2018-03-28T07:44:29.467Z,9.02
2018-03-28T07:45:29.464Z,9.15
2018-03-28T07:46:29.435Z,9.09
2018-03-28T07:47:29.687Z,9.15
2018-03-28T07:48:29.688Z,9.16
2018-03-28T07:49:30.068Z,9.24
2018-03-28T07:50:29.706Z,9.16
2018-03-28T07:51:29.087Z,9.16
2018-03-28T07:52:29.064Z,9.25
2018-03-28T07:53:29.313Z,9.23
2018-03-28T07:54:29.033Z,9.23
2018-03-28T07:55:29.009Z,9.25
2018-03-28T07:56:29.528Z,9.24
2018-03-28T07:57:28.977Z,9.21
2018-03-28T07:58:29.253Z,9.27
2018-03-28T07:59:29.482Z,9.27
2018-03-28T08:00:29.197Z,9.27
2018-03-28T08:01:28.907Z,9.28
2018-03-28T08:02:29.182Z,9.25
2018-03-28T08:03:29.141Z,9.28
2018-03-28T08:04:29.061Z,9.25
2018-03-28T08:05:29.654Z,9.23
2018-03-28T08:06:29.183Z,9.34
2018-03-28T08:07:29.169Z,9.38
2018-03-28T08:08:29.064Z,9.31
2018-03-28T08:09:29.359Z,9.34
2018-03-28T08:10:29.559Z,9.27
2018-03-28T08:11:29.065Z,9.31
2018-03-28T08:12:28.997Z,9.27
2018-03-28T08:13:29.273Z,9.15
2018-03-28T08:14:29.211Z,9.34
2018-03-28T08:15:29.198Z,9.31
2018-03-28T08:16:28.647Z,9.28
2018-03-28T08:17:28.896Z,9.35
2018-03-28T08:18:28.957Z,9.39
2018-03-28T08:19:28.904Z,9.45
2018-03-28T08:20:28.603Z,9.39
2018-03-28T08:21:28.827Z,9.42
2018-03-28T08:22:28.627Z,9.38
2018-03-28T08:23:28.529Z,9.42
2018-03-28T08:24:28.808Z,9.35
2018-03-28T08:25:28.492Z,9.4
2018-03-28T08:26:29.144Z,9.43
2018-03-28T08:27:28.732Z,9.43
2018-03-28T08:28:28.885Z,9.4
2018-03-28T08:29:28.448Z,9.42
2018-03-28T08:30:28.995Z,9.35
2018-03-28T08:31:28.655Z,9.39
2018-03-28T08:32:28.634Z,9.35
2018-03-28T08:33:28.622Z,9.4
2018-03-28T08:34:28.910Z,9.4
2018-03-28T08:35:28.798Z,9.42
2018-03-28T08:36:28.835Z,9.39
2018-03-28T08:37:28.551Z,9.46
2018-03-28T08:38:28.531Z,9.39
2018-03-28T08:39:28.525Z,9.48
2018-03-28T08:40:28.539Z,9.42
2018-03-28T08:41:28.750Z,9.39
2018-03-28T08:42:28.473Z,9.42
2018-03-28T08:43:28.715Z,9.43
2018-03-28T08:44:28.696Z,9.6
2018-03-28T08:45:28.412Z,9.52
2018-03-28T08:46:28.673Z,9.56
2018-03-28T08:47:28.661Z,9.52
2018-03-28T08:48:28.368Z,9.56
2018-03-28T08:49:28.661Z,9.64
2018-03-28T08:50:28.652Z,9.64
2018-03-28T08:51:28.379Z,9.63
2018-03-28T08:52:28.295Z,9.66
2018-03-28T08:53:28.277Z,9.6
2018-03-28T08:54:28.459Z,9.71
2018-03-28T08:55:28.245Z,9.58
2018-03-28T08:56:28.226Z,9.68
2018-03-28T08:57:28.212Z,9.68
2018-03-28T08:58:28.196Z,9.78
2018-03-28T08:59:28.299Z,9.78
2018-03-28T09:00:27.894Z,9.7
2018-03-28T09:01:28.140Z,9.79
2018-03-28T09:02:28.129Z,9.86
2018-03-28T09:03:28.313Z,9.86
2018-03-28T09:04:28.362Z,10.06
2018-03-28T09:05:28.073Z,9.94
2018-03-28T09:06:28.372Z,9.94
2018-03-28T09:07:28.034Z,9.97
2018-03-28T09:08:28.286Z,10
2018-03-28T09:09:28.290Z,9.97
2018-03-28T09:10:28.253Z,10.04
2018-03-28T09:11:27.966Z,10.09
2018-03-28T09:12:27.954Z,10.17
2018-03-28T09:13:27.671Z,10.18
2018-03-28T09:14:27.657Z,10.17
2018-03-28T09:15:27.904Z,10.28
2018-03-28T09:16:27.897Z,10.39
2018-03-28T09:17:27.915Z,10.21
2018-03-28T09:18:27.860Z,10.34
2018-03-28T09:19:28.131Z,10.37
2018-03-28T09:20:28.191Z,10.42
2018-03-28T09:21:28.098Z,10.42
2018-03-28T09:22:27.794Z,10.53
2018-03-28T09:23:27.849Z,10.42
2018-03-28T09:24:27.803Z,10.36
2018-03-28T09:25:27.480Z,10.4
2018-03-28T09:26:27.986Z,10.51
2018-03-28T09:27:27.980Z,10.52
2018-03-28T09:28:27.964Z,10.56
2018-03-28T09:29:27.414Z,10.59
2018-03-28T09:30:27.675Z,10.58
2018-03-28T09:31:27.382Z,10.52
2018-03-28T09:32:27.639Z,10.73
2018-03-28T09:33:27.918Z,10.76
2018-03-28T09:34:27.905Z,10.86
2018-03-28T09:35:27.656Z,10.78
2018-03-28T09:36:27.567Z,10.99
2018-03-28T09:37:27.558Z,10.94
2018-03-28T09:38:27.538Z,10.99
2018-03-28T09:39:27.527Z,11.02
2018-03-28T09:40:27.777Z,11.03
2018-03-28T09:41:27.227Z,11.03
2018-03-28T09:42:27.745Z,10.95
2018-03-28T09:43:27.465Z,10.86
2018-03-28T09:44:27.467Z,10.95
2018-03-28T09:45:27.698Z,10.91
2018-03-28T09:46:27.682Z,10.92
2018-03-28T09:47:27.399Z,10.78
2018-03-28T09:48:27.674Z,10.71
2018-03-28T09:49:27.382Z,10.78
2018-03-28T09:50:27.433Z,10.78
2018-03-28T09:51:27.343Z,10.68
2018-03-28T09:52:27.327Z,10.8
2018-03-28T09:53:27.044Z,10.94
2018-03-28T09:54:27.555Z,10.84
2018-03-28T09:55:27.274Z,10.89
2018-03-28T09:56:27.008Z,10.95
2018-03-28T09:57:27.273Z,11.13
2018-03-28T09:58:27.501Z,11.11
2018-03-28T09:59:27.222Z,11.03
2018-03-28T10:00:26.961Z,11.07
2018-03-28T10:01:27.489Z,11.06
2018-03-28T10:02:27.439Z,11.09
2018-03-28T10:03:26.900Z,11.01
2018-03-28T10:04:27.626Z,11.09
2018-03-28T10:05:27.123Z,11.07
2018-03-28T10:06:27.115Z,11.07
2018-03-28T10:07:27.364Z,11.07
2018-03-28T10:08:27.080Z,10.94
2018-03-28T10:09:27.057Z,10.99
2018-03-28T10:10:26.782Z,10.98
2018-03-28T10:11:27.297Z,10.99
2018-03-28T10:12:27.019Z,11.03
2018-03-28T10:13:27.007Z,11.01
2018-03-28T10:14:26.793Z,11.03
2018-03-28T10:15:26.709Z,11.07
2018-03-28T10:16:26.966Z,11.1
2018-03-28T10:17:26.682Z,11.14
2018-03-28T10:18:26.929Z,11.06
2018-03-28T10:19:26.913Z,11.03
2018-03-28T10:20:26.649Z,11.01
2018-03-28T10:21:26.615Z,11.03
2018-03-28T10:22:27.139Z,11.09
2018-03-28T10:23:27.185Z,11.13
2018-03-28T10:24:27.108Z,11.14
2018-03-28T10:25:26.826Z,11.19
2018-03-28T10:26:27.086Z,11.2
2018-03-28T10:27:27.061Z,11.27
2018-03-28T10:28:27.043Z,11.35
2018-03-28T10:29:26.759Z,11.43
2018-03-28T10:30:26.752Z,11.59
2018-03-28T10:31:26.731Z,11.56
2018-03-28T10:32:26.989Z,11.54
2018-03-28T10:33:26.441Z,11.65
2018-03-28T10:34:26.691Z,11.68
2018-03-28T10:35:26.940Z,11.62
2018-03-28T10:36:26.662Z,11.62
2018-03-28T10:37:26.906Z,11.82
2018-03-28T10:38:26.896Z,11.94
2018-03-28T10:39:26.623Z,11.99
2018-03-28T10:40:26.662Z,12.06
2018-03-28T10:41:26.584Z,12.11
2018-03-28T10:42:26.306Z,12.2
2018-03-28T10:43:26.641Z,12.24
2018-03-28T10:44:26.543Z,12.24
2018-03-28T10:45:26.832Z,12.24
2018-03-28T10:46:26.521Z,12.19
2018-03-28T10:47:26.530Z,12.26
2018-03-28T10:48:26.754Z,12.26
2018-03-28T10:49:26.469Z,12.21
2018-03-28T10:50:26.463Z,12.23
2018-03-28T10:51:26.759Z,12.21
2018-03-28T10:52:26.438Z,12.24
2018-03-28T10:53:26.679Z,12.23
2018-03-28T10:54:26.401Z,11.97
2018-03-28T10:55:26.713Z,11.87
2018-03-28T10:56:26.646Z,11.75
2018-03-28T10:57:26.395Z,11.8
2018-03-28T10:58:26.639Z,11.75
2018-03-28T10:59:26.336Z,11.8
2018-03-28T11:00:26.322Z,11.78
2018-03-28T11:01:26.576Z,11.8
2018-03-28T11:02:26.292Z,11.7
2018-03-28T11:03:26.323Z,11.64
2018-03-28T11:04:26.336Z,11.56
2018-03-28T11:05:26.266Z,11.54
2018-03-28T11:06:26.238Z,11.56
2018-03-28T11:07:26.486Z,11.54
2018-03-28T11:08:25.934Z,11.52
2018-03-28T11:09:26.562Z,11.43
2018-03-28T11:10:26.469Z,11.43
2018-03-28T11:11:26.426Z,11.41
2018-03-28T11:12:26.420Z,11.38
2018-03-28T11:13:26.459Z,11.41
2018-03-28T11:14:26.126Z,11.44
2018-03-28T11:15:25.839Z,11.46
2018-03-28T11:16:26.173Z,11.41
2018-03-28T11:17:26.076Z,11.39
2018-03-28T11:18:25.936Z,11.41
2018-03-28T11:19:26.313Z,11.46
2018-03-28T11:20:26.210Z,11.36
2018-03-28T11:21:26.342Z,11.43
2018-03-28T11:22:26.072Z,11.38
2018-03-28T11:23:25.725Z,11.39
2018-03-28T11:24:25.710Z,11.41
2018-03-28T11:25:25.791Z,11.43
2018-03-28T11:26:26.208Z,11.53
2018-03-28T11:27:25.976Z,11.53
2018-03-28T11:28:25.916Z,11.47
2018-03-28T11:29:25.637Z,11.43
2018-03-28T11:30:25.880Z,11.52
2018-03-28T11:31:25.605Z,11.5
2018-03-28T11:32:26.124Z,11.43
2018-03-28T11:33:26.110Z,11.49
2018-03-28T11:34:25.820Z,11.41
2018-03-28T11:35:25.542Z,11.43
2018-03-28T11:36:25.524Z,11.36
2018-03-28T11:37:26.048Z,11.43
2018-03-28T11:38:26.024Z,11.25
2018-03-28T11:39:26.011Z,11.28
2018-03-28T11:40:25.735Z,11.17
2018-03-28T11:41:25.986Z,11.16
2018-03-28T11:42:25.702Z,11.1
2018-03-28T11:43:25.954Z,11.09
2018-03-28T11:44:25.929Z,11.13
2018-03-28T11:45:25.663Z,11.03
2018-03-28T11:46:25.907Z,11.11
2018-03-28T11:47:25.888Z,11.16
2018-03-28T11:48:25.626Z,11.09
2018-03-28T11:49:25.638Z,11.16
2018-03-28T11:50:25.582Z,11.11
2018-03-28T11:51:25.841Z,11.11
2018-03-28T11:52:25.292Z,11.16
2018-03-28T11:53:25.534Z,11.06
2018-03-28T11:54:25.309Z,11.17
2018-03-28T11:55:25.501Z,11.19
2018-03-28T11:56:25.482Z,11.09
2018-03-28T11:57:25.468Z,11.27
2018-03-28T11:58:25.917Z,11.31
2018-03-28T11:59:25.705Z,11.25
2018-03-28T12:00:26.027Z,11.28
2018-03-28T12:01:25.485Z,11.29
2018-03-28T12:02:25.129Z,11.29
2018-03-28T12:03:25.513Z,11.35
2018-03-28T12:04:27.091Z,11.35
2018-03-28T12:05:25.614Z,11.32
2018-03-28T12:06:25.591Z,11.35
2018-03-28T12:07:25.605Z,11.35
2018-03-28T12:08:25.680Z,11.43
2018-03-28T12:09:25.338Z,11.44
2018-03-28T12:10:25.008Z,11.39
2018-03-28T12:11:24.986Z,11.38
2018-03-28T12:12:25.554Z,11.29
2018-03-28T12:13:25.489Z,11.38
2018-03-28T12:14:25.292Z,11.35
2018-03-28T12:15:25.015Z,11.31
2018-03-28T12:16:25.176Z,11.41
2018-03-28T12:17:25.450Z,11.28
2018-03-28T12:18:25.406Z,11.31
2018-03-28T12:19:25.122Z,11.32
2018-03-28T12:20:25.435Z,11.31
2018-03-28T12:21:25.094Z,11.21
2018-03-28T12:22:25.087Z,11.27
2018-03-28T12:23:25.412Z,11.13
2018-03-28T12:24:24.786Z,11.16
2018-03-28T12:25:24.780Z,11.1
2018-03-28T12:26:25.010Z,11.09
2018-03-28T12:27:25.290Z,11.06
2018-03-28T12:28:25.256Z,11.09
2018-03-28T12:29:25.239Z,11.1
2018-03-28T12:30:25.314Z,11.07
2018-03-28T12:31:24.670Z,11.03
2018-03-28T12:32:25.197Z,11.03
2018-03-28T12:33:24.643Z,11.1
2018-03-28T12:34:25.157Z,11.1
2018-03-28T12:35:25.143Z,11.07
2018-03-28T12:36:24.590Z,10.98
2018-03-28T12:37:24.573Z,10.91
2018-03-28T12:38:24.830Z,10.86
2018-03-28T12:39:25.080Z,10.86
2018-03-28T12:40:24.794Z,10.81
2018-03-28T12:41:24.781Z,10.78
2018-03-28T12:42:24.760Z,10.83
2018-03-28T12:43:24.774Z,10.68
2018-03-28T12:44:24.992Z,10.73
2018-03-28T12:45:24.487Z,10.7
2018-03-28T12:46:24.695Z,10.77
2018-03-28T12:47:24.763Z,10.68
2018-03-28T12:48:24.986Z,10.74
2018-03-28T12:49:24.387Z,10.7
2018-03-28T12:50:24.374Z,10.76
2018-03-28T12:51:24.360Z,10.65
2018-03-28T12:52:24.688Z,10.73
2018-03-28T12:53:24.586Z,10.62
2018-03-28T12:54:24.570Z,10.65
2018-03-28T12:55:25.124Z,10.77
2018-03-28T12:56:24.536Z,10.74
2018-03-28T12:57:24.836Z,10.73
2018-03-28T12:58:24.503Z,10.78
2018-03-28T12:59:24.540Z,10.76
2018-03-28T13:00:24.475Z,10.71
2018-03-28T13:01:24.453Z,10.7
2018-03-28T13:02:24.437Z,10.74
2018-03-28T13:03:24.424Z,10.74
2018-03-28T13:04:24.674Z,10.66
2018-03-28T13:05:24.440Z,10.71
2018-03-28T13:06:24.370Z,10.74
2018-03-28T13:07:24.358Z,10.74
2018-03-28T13:08:24.341Z,10.7
2018-03-28T13:09:24.067Z,10.7
2018-03-28T13:10:24.571Z,10.59
2018-03-28T13:11:24.560Z,10.55
2018-03-28T13:12:24.547Z,10.62
2018-03-28T13:13:24.263Z,10.65